Wadsworth, New York
Current Conditions -  °F | °C
As of 11:54 AM on Wednesday 26 Nov 2014 (Local Time) from KDSV Reporting Station
Overcast Overcast  
Wind Chill: 32°   Ceiling: 3300
Heat Index: 36°   Visibility: 10mi
Dew Point: 24°   Wind: 5mph
Humidity: 62%   Direction: NA
Pressure: 30.12"   Gusts: NA
Location:  42.8438°N, 77.8874°W
Report Text: KDSV 261654Z AUTO VRB04KT 10SM OVC033 02/M04 A3012 RMK AO2 SLP215 T00221044
Loading
Personal Weather Stations






























Interactive Weather Map New forecast layout! Learn more

10-Day Weather Forecast

Advertisements
Track Severe Weather on mobile